sensor_id;sensor_type;location;lat;lon;timestamp;P1;durP1;ratioP1;P2;durP2;ratioP2
19235;SDS011;9752;54.270;12.470;2022-10-31T00:04:22;90.03;;;49.93;;
19235;SDS011;9752;54.270;12.470;2022-10-31T00:09:24;90.07;;;51.40;;
19235;SDS011;9752;54.270;12.470;2022-10-31T00:14:25;71.13;;;45.30;;
19235;SDS011;9752;54.270;12.470;2022-10-31T00:19:29;74.87;;;46.77;;
19235;SDS011;9752;54.270;12.470;2022-10-31T00:24:30;83.53;;;48.57;;
19235;SDS011;9752;54.270;12.470;2022-10-31T00:29:32;72.73;;;46.57;;
19235;SDS011;9752;54.270;12.470;2022-10-31T00:34:35;90.77;;;49.30;;
19235;SDS011;9752;54.270;12.470;2022-10-31T00:39:38;76.43;;;46.60;;
19235;SDS011;9752;54.270;12.470;2022-10-31T00:44:40;87.13;;;49.87;;
19235;SDS011;9752;54.270;12.470;2022-10-31T00:49:43;70.27;;;43.30;;
19235;SDS011;9752;54.270;12.470;2022-10-31T00:54:44;69.83;;;43.33;;
19235;SDS011;9752;54.270;12.470;2022-10-31T00:59:46;74.50;;;43.53;;
19235;SDS011;9752;54.270;12.470;2022-10-31T01:04:49;49.90;;;35.73;;
19235;SDS011;9752;54.270;12.470;2022-10-31T01:09:51;63.07;;;41.93;;
19235;SDS011;9752;54.270;12.470;2022-10-31T01:14:53;67.50;;;40.03;;
19235;SDS011;9752;54.270;12.470;2022-10-31T01:19:56;106.13;;;49.00;;
19235;SDS011;9752;54.270;12.470;2022-10-31T01:25:01;142.00;;;58.73;;
19235;SDS011;9752;54.270;12.470;2022-10-31T01:30:03;90.93;;;48.97;;
19235;SDS011;9752;54.270;12.470;2022-10-31T01:35:07;91.50;;;47.63;;
19235;SDS011;9752;54.270;12.470;2022-10-31T01:40:09;55.17;;;36.27;;
19235;SDS011;9752;54.270;12.470;2022-10-31T01:45:11;60.40;;;38.27;;
19235;SDS011;9752;54.270;12.470;2022-10-31T01:50:22;92.70;;;48.87;;
19235;SDS011;9752;54.270;12.470;2022-10-31T01:55:30;85.43;;;45.40;;
19235;SDS011;9752;54.270;12.470;2022-10-31T02:00:35;230.47;;;67.03;;
19235;SDS011;9752;54.270;12.470;2022-10-31T02:05:39;72.83;;;41.13;;
19235;SDS011;9752;54.270;12.470;2022-10-31T02:10:44;94.83;;;46.00;;
19235;SDS011;9752;54.270;12.470;2022-10-31T02:15:47;265.20;;;69.37;;
19235;SDS011;9752;54.270;12.470;2022-10-31T02:20:57;80.53;;;42.93;;
19235;SDS011;9752;54.270;12.470;2022-10-31T02:26:11;124.67;;;52.10;;
19235;SDS011;9752;54.270;12.470;2022-10-31T02:31:32;99.83;;;47.07;;
19235;SDS011;9752;54.270;12.470;2022-10-31T02:36:39;141.47;;;56.37;;
19235;SDS011;9752;54.270;12.470;2022-10-31T02:41:50;315.00;;;84.00;;
19235;SDS011;9752;54.270;12.470;2022-10-31T02:46:59;138.57;;;54.73;;
19235;SDS011;9752;54.270;12.470;2022-10-31T02:52:13;56.17;;;36.07;;
19235;SDS011;9752;54.270;12.470;2022-10-31T02:57:19;59.53;;;36.57;;
19235;SDS011;9752;54.270;12.470;2022-10-31T03:02:28;138.67;;;45.57;;
19235;SDS011;9752;54.270;12.470;2022-10-31T03:07:46;166.33;;;53.60;;
19235;SDS011;9752;54.270;12.470;2022-10-31T03:12:57;181.53;;;60.93;;
19235;SDS011;9752;54.270;12.470;2022-10-31T03:18:06;121.20;;;51.23;;
19235;SDS011;9752;54.270;12.470;2022-10-31T03:23:11;61.90;;;38.30;;
19235;SDS011;9752;54.270;12.470;2022-10-31T03:28:15;118.27;;;51.37;;
19235;SDS011;9752;54.270;12.470;2022-10-31T03:33:24;64.33;;;40.90;;
19235;SDS011;9752;54.270;12.470;2022-10-31T03:38:29;103.27;;;48.40;;
19235;SDS011;9752;54.270;12.470;2022-10-31T03:43:36;50.63;;;36.63;;
19235;SDS011;9752;54.270;12.470;2022-10-31T03:48:44;51.93;;;34.77;;
19235;SDS011;9752;54.270;12.470;2022-10-31T03:53:47;96.97;;;47.00;;
19235;SDS011;9752;54.270;12.470;2022-10-31T03:58:58;127.73;;;46.30;;
19235;SDS011;9752;54.270;12.470;2022-10-31T04:04:06;72.00;;;39.47;;
19235;SDS011;9752;54.270;12.470;2022-10-31T04:09:09;101.00;;;43.73;;
19235;SDS011;9752;54.270;12.470;2022-10-31T04:14:12;150.03;;;50.00;;
19235;SDS011;9752;54.270;12.470;2022-10-31T04:19:15;66.63;;;40.50;;
19235;SDS011;9752;54.270;12.470;2022-10-31T04:24:17;124.90;;;51.23;;
19235;SDS011;9752;54.270;12.470;2022-10-31T04:29:19;297.50;;;77.33;;
19235;SDS011;9752;54.270;12.470;2022-10-31T04:34:22;161.90;;;61.27;;
19235;SDS011;9752;54.270;12.470;2022-10-31T04:39:24;128.70;;;49.43;;
19235;SDS011;9752;54.270;12.470;2022-10-31T04:44:46;76.77;;;43.50;;
19235;SDS011;9752;54.270;12.470;2022-10-31T04:49:50;64.97;;;40.87;;
19235;SDS011;9752;54.270;12.470;2022-10-31T04:54:51;239.10;;;68.07;;
19235;SDS011;9752;54.270;12.470;2022-10-31T05:00:26;73.90;;;37.37;;
19235;SDS011;9752;54.270;12.470;2022-10-31T05:05:30;36.03;;;26.90;;
19235;SDS011;9752;54.270;12.470;2022-10-31T05:10:35;74.33;;;40.60;;
19235;SDS011;9752;54.270;12.470;2022-10-31T05:15:38;45.10;;;32.33;;
19235;SDS011;9752;54.270;12.470;2022-10-31T05:21:00;105.57;;;47.63;;
19235;SDS011;9752;54.270;12.470;2022-10-31T05:26:09;49.63;;;32.93;;
19235;SDS011;9752;54.270;12.470;2022-10-31T05:31:11;128.57;;;57.73;;
19235;SDS011;9752;54.270;12.470;2022-10-31T05:36:14;78.90;;;44.73;;
19235;SDS011;9752;54.270;12.470;2022-10-31T05:41:25;46.40;;;33.93;;
19235;SDS011;9752;54.270;12.470;2022-10-31T05:46:36;43.00;;;31.70;;
19235;SDS011;9752;54.270;12.470;2022-10-31T05:51:45;47.93;;;35.03;;
19235;SDS011;9752;54.270;12.470;2022-10-31T05:56:47;57.67;;;37.00;;
19235;SDS011;9752;54.270;12.470;2022-10-31T06:01:49;61.83;;;40.87;;
19235;SDS011;9752;54.270;12.470;2022-10-31T06:07:05;49.60;;;33.47;;
19235;SDS011;9752;54.270;12.470;2022-10-31T06:12:07;55.73;;;37.70;;
19235;SDS011;9752;54.270;12.470;2022-10-31T06:17:40;70.63;;;44.33;;
19235;SDS011;9752;54.270;12.470;2022-10-31T06:22:58;87.63;;;51.33;;
19235;SDS011;9752;54.270;12.470;2022-10-31T06:27:59;51.60;;;37.80;;
19235;SDS011;9752;54.270;12.470;2022-10-31T06:33:22;71.90;;;44.23;;
19235;SDS011;9752;54.270;12.470;2022-10-31T06:38:35;46.77;;;35.03;;
19235;SDS011;9752;54.270;12.470;2022-10-31T06:43:40;58.30;;;42.03;;
19235;SDS011;9752;54.270;12.470;2022-10-31T06:49:08;53.63;;;37.67;;
19235;SDS011;9752;54.270;12.470;2022-10-31T06:54:25;46.07;;;36.83;;
19235;SDS011;9752;54.270;12.470;2022-10-31T06:59:27;62.03;;;41.63;;
19235;SDS011;9752;54.270;12.470;2022-10-31T07:04:51;55.97;;;40.23;;
19235;SDS011;9752;54.270;12.470;2022-10-31T07:09:55;49.83;;;36.60;;
19235;SDS011;9752;54.270;12.470;2022-10-31T07:15:12;59.47;;;41.93;;
19235;SDS011;9752;54.270;12.470;2022-10-31T07:20:14;48.80;;;35.30;;
19235;SDS011;9752;54.270;12.470;2022-10-31T07:25:18;52.23;;;38.70;;
19235;SDS011;9752;54.270;12.470;2022-10-31T07:30:38;81.93;;;51.77;;
19235;SDS011;9752;54.270;12.470;2022-10-31T07:35:42;71.03;;;44.13;;
19235;SDS011;9752;54.270;12.470;2022-10-31T07:40:50;62.17;;;41.13;;
19235;SDS011;9752;54.270;12.470;2022-10-31T07:45:54;48.27;;;35.27;;
19235;SDS011;9752;54.270;12.470;2022-10-31T07:51:14;79.80;;;46.80;;
19235;SDS011;9752;54.270;12.470;2022-10-31T07:56:48;49.67;;;35.07;;
19235;SDS011;9752;54.270;12.470;2022-10-31T08:01:50;74.27;;;45.63;;
19235;SDS011;9752;54.270;12.470;2022-10-31T08:07:15;65.07;;;42.20;;
19235;SDS011;9752;54.270;12.470;2022-10-31T08:12:25;90.37;;;51.00;;
19235;SDS011;9752;54.270;12.470;2022-10-31T08:17:27;209.50;;;89.50;;
19235;SDS011;9752;54.270;12.470;2022-10-31T08:22:31;200.23;;;89.70;;
19235;SDS011;9752;54.270;12.470;2022-10-31T08:27:36;332.20;;;122.67;;
19235;SDS011;9752;54.270;12.470;2022-10-31T08:32:38;296.63;;;113.87;;
19235;SDS011;9752;54.270;12.470;2022-10-31T08:38:05;252.10;;;104.50;;
19235;SDS011;9752;54.270;12.470;2022-10-31T08:43:10;417.30;;;141.77;;
19235;SDS011;9752;54.270;12.470;2022-10-31T08:48:14;422.60;;;142.73;;
19235;SDS011;9752;54.270;12.470;2022-10-31T08:53:17;435.33;;;142.87;;
19235;SDS011;9752;54.270;12.470;2022-10-31T08:58:29;386.20;;;124.13;;
19235;SDS011;9752;54.270;12.470;2022-10-31T09:03:35;431.07;;;138.47;;
19235;SDS011;9752;54.270;12.470;2022-10-31T09:08:36;609.70;;;194.23;;
19235;SDS011;9752;54.270;12.470;2022-10-31T09:13:40;628.80;;;203.27;;
19235;SDS011;9752;54.270;12.470;2022-10-31T09:19:00;531.07;;;174.53;;
19235;SDS011;9752;54.270;12.470;2022-10-31T09:24:02;370.83;;;128.10;;
19235;SDS011;9752;54.270;12.470;2022-10-31T09:29:07;535.97;;;175.20;;
19235;SDS011;9752;54.270;12.470;2022-10-31T09:34:09;520.07;;;174.30;;
19235;SDS011;9752;54.270;12.470;2022-10-31T09:39:11;569.90;;;183.47;;
19235;SDS011;9752;54.270;12.470;2022-10-31T09:44:17;442.60;;;153.77;;
19235;SDS011;9752;54.270;12.470;2022-10-31T09:49:37;474.60;;;161.27;;
19235;SDS011;9752;54.270;12.470;2022-10-31T09:54:54;433.33;;;148.37;;
19235;SDS011;9752;54.270;12.470;2022-10-31T10:00:02;468.53;;;154.37;;
19235;SDS011;9752;54.270;12.470;2022-10-31T10:05:15;483.90;;;161.50;;
19235;SDS011;9752;54.270;12.470;2022-10-31T10:10:21;389.20;;;139.63;;
19235;SDS011;9752;54.270;12.470;2022-10-31T10:16:12;341.07;;;119.60;;
19235;SDS011;9752;54.270;12.470;2022-10-31T10:21:24;315.30;;;119.07;;
19235;SDS011;9752;54.270;12.470;2022-10-31T10:26:34;292.37;;;109.70;;
19235;SDS011;9752;54.270;12.470;2022-10-31T10:31:40;296.33;;;110.20;;
19235;SDS011;9752;54.270;12.470;2022-10-31T10:36:48;317.97;;;115.50;;
19235;SDS011;9752;54.270;12.470;2022-10-31T10:41:55;275.07;;;98.47;;
19235;SDS011;9752;54.270;12.470;2022-10-31T10:47:19;250.97;;;95.27;;
19235;SDS011;9752;54.270;12.470;2022-10-31T10:52:40;291.10;;;94.40;;
19235;SDS011;9752;54.270;12.470;2022-10-31T10:57:52;218.83;;;78.13;;
19235;SDS011;9752;54.270;12.470;2022-10-31T11:02:58;185.47;;;67.50;;
19235;SDS011;9752;54.270;12.470;2022-10-31T11:08:00;158.90;;;58.80;;
19235;SDS011;9752;54.270;12.470;2022-10-31T11:13:14;296.63;;;82.90;;
19235;SDS011;9752;54.270;12.470;2022-10-31T11:18:24;155.13;;;57.67;;
19235;SDS011;9752;54.270;12.470;2022-10-31T11:23:27;282.17;;;74.47;;
19235;SDS011;9752;54.270;12.470;2022-10-31T11:28:38;399.30;;;95.03;;
19235;SDS011;9752;54.270;12.470;2022-10-31T11:33:40;183.53;;;59.60;;
19235;SDS011;9752;54.270;12.470;2022-10-31T11:38:48;172.23;;;55.17;;
19235;SDS011;9752;54.270;12.470;2022-10-31T11:43:53;162.80;;;50.13;;
19235;SDS011;9752;54.270;12.470;2022-10-31T11:48:56;273.13;;;69.93;;
19235;SDS011;9752;54.270;12.470;2022-10-31T11:53:59;146.50;;;47.30;;
19235;SDS011;9752;54.270;12.470;2022-10-31T11:59:04;352.90;;;76.10;;
19235;SDS011;9752;54.270;12.470;2022-10-31T12:04:07;104.37;;;39.37;;
19235;SDS011;9752;54.270;12.470;2022-10-31T12:09:15;99.67;;;40.50;;
19235;SDS011;9752;54.270;12.470;2022-10-31T12:14:27;138.30;;;46.53;;
19235;SDS011;9752;54.270;12.470;2022-10-31T12:19:40;109.17;;;41.47;;
19235;SDS011;9752;54.270;12.470;2022-10-31T12:24:50;174.73;;;48.43;;
19235;SDS011;9752;54.270;12.470;2022-10-31T12:30:12;225.70;;;56.23;;
19235;SDS011;9752;54.270;12.470;2022-10-31T12:35:21;239.53;;;55.53;;
19235;SDS011;9752;54.270;12.470;2022-10-31T12:40:34;280.93;;;65.53;;
19235;SDS011;9752;54.270;12.470;2022-10-31T12:45:53;284.97;;;63.67;;
19235;SDS011;9752;54.270;12.470;2022-10-31T12:50:58;221.50;;;54.73;;
19235;SDS011;9752;54.270;12.470;2022-10-31T12:56:15;183.57;;;50.70;;
19235;SDS011;9752;54.270;12.470;2022-10-31T13:01:29;162.20;;;45.80;;
19235;SDS011;9752;54.270;12.470;2022-10-31T13:06:36;258.23;;;62.03;;
19235;SDS011;9752;54.270;12.470;2022-10-31T13:11:44;237.33;;;55.50;;
19235;SDS011;9752;54.270;12.470;2022-10-31T13:16:51;103.87;;;37.73;;
19235;SDS011;9752;54.270;12.470;2022-10-31T13:21:57;201.50;;;51.77;;
19235;SDS011;9752;54.270;12.470;2022-10-31T13:27:09;290.00;;;65.47;;
19235;SDS011;9752;54.270;12.470;2022-10-31T13:32:16;135.00;;;42.10;;
19235;SDS011;9752;54.270;12.470;2022-10-31T13:37:20;207.73;;;49.27;;
19235;SDS011;9752;54.270;12.470;2022-10-31T13:42:32;176.30;;;44.50;;
19235;SDS011;9752;54.270;12.470;2022-10-31T13:47:54;418.57;;;77.87;;
19235;SDS011;9752;54.270;12.470;2022-10-31T13:53:08;357.83;;;71.03;;
19235;SDS011;9752;54.270;12.470;2022-10-31T13:58:23;294.77;;;57.63;;
19235;SDS011;9752;54.270;12.470;2022-10-31T14:03:27;365.80;;;68.97;;
19235;SDS011;9752;54.270;12.470;2022-10-31T14:08:30;292.40;;;62.10;;
19235;SDS011;9752;54.270;12.470;2022-10-31T14:13:36;298.97;;;58.60;;
19235;SDS011;9752;54.270;12.470;2022-10-31T14:18:46;234.57;;;54.07;;
19235;SDS011;9752;54.270;12.470;2022-10-31T14:23:51;204.33;;;42.03;;
19235;SDS011;9752;54.270;12.470;2022-10-31T14:28:54;133.23;;;37.50;;
19235;SDS011;9752;54.270;12.470;2022-10-31T14:33:58;91.97;;;30.77;;
19235;SDS011;9752;54.270;12.470;2022-10-31T14:39:01;150.20;;;38.60;;
19235;SDS011;9752;54.270;12.470;2022-10-31T14:44:16;104.90;;;32.07;;
19235;SDS011;9752;54.270;12.470;2022-10-31T14:49:31;119.27;;;34.27;;
19235;SDS011;9752;54.270;12.470;2022-10-31T14:54:47;100.93;;;31.90;;
19235;SDS011;9752;54.270;12.470;2022-10-31T14:59:53;119.73;;;35.70;;
19235;SDS011;9752;54.270;12.470;2022-10-31T15:05:01;91.40;;;30.73;;
19235;SDS011;9752;54.270;12.470;2022-10-31T15:10:18;98.07;;;32.53;;
19235;SDS011;9752;54.270;12.470;2022-10-31T15:15:23;53.00;;;24.30;;
19235;SDS011;9752;54.270;12.470;2022-10-31T15:20:28;77.60;;;29.70;;
19235;SDS011;9752;54.270;12.470;2022-10-31T15:25:33;107.33;;;33.37;;
19235;SDS011;9752;54.270;12.470;2022-10-31T15:30:35;124.47;;;37.67;;
19235;SDS011;9752;54.270;12.470;2022-10-31T15:35:39;120.03;;;35.87;;
19235;SDS011;9752;54.270;12.470;2022-10-31T15:40:40;94.27;;;33.97;;
19235;SDS011;9752;54.270;12.470;2022-10-31T15:45:56;134.27;;;38.87;;
19235;SDS011;9752;54.270;12.470;2022-10-31T15:51:02;120.30;;;37.47;;
19235;SDS011;9752;54.270;12.470;2022-10-31T15:56:05;92.90;;;35.33;;
19235;SDS011;9752;54.270;12.470;2022-10-31T16:01:18;150.17;;;39.80;;
19235;SDS011;9752;54.270;12.470;2022-10-31T16:06:23;54.63;;;25.00;;
19235;SDS011;9752;54.270;12.470;2022-10-31T16:11:28;85.73;;;30.60;;
19235;SDS011;9752;54.270;12.470;2022-10-31T16:16:39;112.00;;;32.27;;
19235;SDS011;9752;54.270;12.470;2022-10-31T16:21:44;46.13;;;22.20;;
19235;SDS011;9752;54.270;12.470;2022-10-31T16:26:49;79.40;;;27.10;;
19235;SDS011;9752;54.270;12.470;2022-10-31T16:31:52;50.63;;;23.50;;
19235;SDS011;9752;54.270;12.470;2022-10-31T16:36:55;66.20;;;29.67;;
19235;SDS011;9752;54.270;12.470;2022-10-31T16:41:57;85.73;;;33.90;;
19235;SDS011;9752;54.270;12.470;2022-10-31T16:52:20;172.87;;;49.03;;
19235;SDS011;9752;54.270;12.470;2022-10-31T16:57:23;89.03;;;36.83;;
19235;SDS011;9752;54.270;12.470;2022-10-31T17:02:30;109.43;;;34.53;;
19235;SDS011;9752;54.270;12.470;2022-10-31T17:07:34;136.83;;;44.90;;
19235;SDS011;9752;54.270;12.470;2022-10-31T17:12:35;126.73;;;44.77;;
19235;SDS011;9752;54.270;12.470;2022-10-31T17:17:38;137.20;;;52.73;;
19235;SDS011;9752;54.270;12.470;2022-10-31T17:22:42;86.97;;;43.63;;
19235;SDS011;9752;54.270;12.470;2022-10-31T17:27:43;90.23;;;43.20;;
19235;SDS011;9752;54.270;12.470;2022-10-31T17:32:45;144.10;;;54.67;;
19235;SDS011;9752;54.270;12.470;2022-10-31T17:37:49;87.60;;;41.10;;
19235;SDS011;9752;54.270;12.470;2022-10-31T17:42:52;49.60;;;29.97;;
19235;SDS011;9752;54.270;12.470;2022-10-31T17:47:54;70.17;;;33.77;;
19235;SDS011;9752;54.270;12.470;2022-10-31T17:52:57;84.47;;;38.40;;
19235;SDS011;9752;54.270;12.470;2022-10-31T17:57:59;84.00;;;37.60;;
19235;SDS011;9752;54.270;12.470;2022-10-31T18:03:01;61.70;;;30.60;;
19235;SDS011;9752;54.270;12.470;2022-10-31T18:08:04;82.77;;;37.80;;
19235;SDS011;9752;54.270;12.470;2022-10-31T18:13:06;72.13;;;33.77;;
19235;SDS011;9752;54.270;12.470;2022-10-31T18:18:07;156.60;;;47.17;;
19235;SDS011;9752;54.270;12.470;2022-10-31T18:23:11;84.13;;;35.53;;
19235;SDS011;9752;54.270;12.470;2022-10-31T18:28:12;142.03;;;44.30;;
19235;SDS011;9752;54.270;12.470;2022-10-31T18:33:14;94.83;;;34.23;;
19235;SDS011;9752;54.270;12.470;2022-10-31T18:38:17;103.37;;;33.77;;
19235;SDS011;9752;54.270;12.470;2022-10-31T18:43:19;121.50;;;35.20;;
19235;SDS011;9752;54.270;12.470;2022-10-31T18:48:21;161.60;;;40.37;;
19235;SDS011;9752;54.270;12.470;2022-10-31T18:53:24;83.07;;;28.13;;
19235;SDS011;9752;54.270;12.470;2022-10-31T18:58:26;156.70;;;38.97;;
19235;SDS011;9752;54.270;12.470;2022-10-31T19:03:28;145.27;;;36.00;;
19235;SDS011;9752;54.270;12.470;2022-10-31T19:08:32;121.23;;;32.33;;
19235;SDS011;9752;54.270;12.470;2022-10-31T19:13:34;181.33;;;35.27;;
19235;SDS011;9752;54.270;12.470;2022-10-31T19:18:36;126.90;;;34.97;;
19235;SDS011;9752;54.270;12.470;2022-10-31T19:23:40;157.27;;;35.43;;
19235;SDS011;9752;54.270;12.470;2022-10-31T19:28:42;158.70;;;38.63;;
19235;SDS011;9752;54.270;12.470;2022-10-31T19:33:44;227.37;;;42.43;;
19235;SDS011;9752;54.270;12.470;2022-10-31T19:38:47;203.30;;;44.90;;
19235;SDS011;9752;54.270;12.470;2022-10-31T19:43:50;101.47;;;32.30;;
19235;SDS011;9752;54.270;12.470;2022-10-31T19:48:53;94.20;;;33.43;;
19235;SDS011;9752;54.270;12.470;2022-10-31T19:53:57;371.73;;;64.77;;
19235;SDS011;9752;54.270;12.470;2022-10-31T19:58:59;410.57;;;67.07;;
19235;SDS011;9752;54.270;12.470;2022-10-31T20:04:03;357.40;;;53.53;;
19235;SDS011;9752;54.270;12.470;2022-10-31T20:09:07;338.07;;;60.70;;
19235;SDS011;9752;54.270;12.470;2022-10-31T20:14:13;103.07;;;32.47;;
19235;SDS011;9752;54.270;12.470;2022-10-31T20:19:16;383.63;;;69.30;;
19235;SDS011;9752;54.270;12.470;2022-10-31T20:24:19;365.87;;;70.23;;
19235;SDS011;9752;54.270;12.470;2022-10-31T20:29:20;231.60;;;47.37;;
19235;SDS011;9752;54.270;12.470;2022-10-31T20:34:22;382.13;;;66.93;;
19235;SDS011;9752;54.270;12.470;2022-10-31T20:39:26;202.93;;;51.10;;
19235;SDS011;9752;54.270;12.470;2022-10-31T20:44:27;300.73;;;57.77;;
19235;SDS011;9752;54.270;12.470;2022-10-31T20:49:29;345.30;;;68.40;;
19235;SDS011;9752;54.270;12.470;2022-10-31T20:54:32;240.80;;;57.47;;
19235;SDS011;9752;54.270;12.470;2022-10-31T20:59:34;432.53;;;67.17;;
19235;SDS011;9752;54.270;12.470;2022-10-31T21:04:36;276.53;;;58.00;;
19235;SDS011;9752;54.270;12.470;2022-10-31T21:09:39;197.23;;;52.53;;
19235;SDS011;9752;54.270;12.470;2022-10-31T21:14:40;170.93;;;48.90;;
19235;SDS011;9752;54.270;12.470;2022-10-31T21:19:42;212.10;;;56.43;;
19235;SDS011;9752;54.270;12.470;2022-10-31T21:24:46;444.23;;;87.53;;
19235;SDS011;9752;54.270;12.470;2022-10-31T21:29:48;216.67;;;53.93;;
19235;SDS011;9752;54.270;12.470;2022-10-31T21:34:49;123.03;;;42.80;;
19235;SDS011;9752;54.270;12.470;2022-10-31T21:39:52;245.03;;;62.73;;
19235;SDS011;9752;54.270;12.470;2022-10-31T21:44:54;260.70;;;66.07;;
19235;SDS011;9752;54.270;12.470;2022-10-31T21:49:56;390.17;;;86.17;;
19235;SDS011;9752;54.270;12.470;2022-10-31T21:54:59;204.40;;;59.57;;
19235;SDS011;9752;54.270;12.470;2022-10-31T22:00:00;366.60;;;83.80;;
19235;SDS011;9752;54.270;12.470;2022-10-31T22:05:05;250.00;;;72.07;;
19235;SDS011;9752;54.270;12.470;2022-10-31T22:10:09;227.43;;;70.93;;
19235;SDS011;9752;54.270;12.470;2022-10-31T22:15:10;149.33;;;56.10;;
19235;SDS011;9752;54.270;12.470;2022-10-31T22:20:12;148.83;;;53.47;;
19235;SDS011;9752;54.270;12.470;2022-10-31T22:25:15;153.83;;;56.27;;
19235;SDS011;9752;54.270;12.470;2022-10-31T22:30:17;141.67;;;49.83;;
19235;SDS011;9752;54.270;12.470;2022-10-31T22:35:19;149.73;;;48.67;;
19235;SDS011;9752;54.270;12.470;2022-10-31T22:40:22;140.00;;;48.57;;
19235;SDS011;9752;54.270;12.470;2022-10-31T22:45:24;90.00;;;36.40;;
19235;SDS011;9752;54.270;12.470;2022-10-31T22:50:25;150.10;;;50.77;;
19235;SDS011;9752;54.270;12.470;2022-10-31T22:55:29;147.60;;;51.47;;
19235;SDS011;9752;54.270;12.470;2022-10-31T23:00:30;78.40;;;35.57;;
19235;SDS011;9752;54.270;12.470;2022-10-31T23:05:32;129.03;;;47.73;;
19235;SDS011;9752;54.270;12.470;2022-10-31T23:10:35;88.43;;;36.17;;
19235;SDS011;9752;54.270;12.470;2022-10-31T23:15:40;99.27;;;39.77;;
19235;SDS011;9752;54.270;12.470;2022-10-31T23:20:42;87.23;;;36.37;;
19235;SDS011;9752;54.270;12.470;2022-10-31T23:25:45;92.77;;;37.70;;
19235;SDS011;9752;54.270;12.470;2022-10-31T23:31:04;93.67;;;39.00;;
19235;SDS011;9752;54.270;12.470;2022-10-31T23:36:06;116.13;;;44.30;;
19235;SDS011;9752;54.270;12.470;2022-10-31T23:41:09;75.60;;;33.50;;
19235;SDS011;9752;54.270;12.470;2022-10-31T23:46:11;99.50;;;38.97;;
19235;SDS011;9752;54.270;12.470;2022-10-31T23:51:12;95.43;;;41.17;;
19235;SDS011;9752;54.270;12.470;2022-10-31T23:56:16;86.30;;;35.63;;
